createdAt,value
2023-03-22T00:00:42.635Z,21.90
2023-03-22T00:01:42.612Z,23.90
2023-03-22T00:02:42.694Z,21.40
2023-03-22T00:03:42.618Z,21.90
2023-03-22T00:04:42.600Z,22.10
2023-03-22T00:05:42.580Z,22.50
2023-03-22T00:06:42.559Z,23.70
2023-03-22T00:07:43.570Z,24.00
2023-03-22T00:08:42.542Z,22.20
2023-03-22T00:09:42.553Z,24.60
2023-03-22T00:10:42.520Z,24.60
2023-03-22T00:11:42.515Z,24.30
2023-03-22T00:12:42.505Z,22.90
2023-03-22T00:13:42.497Z,23.50
2023-03-22T00:14:42.494Z,24.60
2023-03-22T00:15:42.531Z,22.40
2023-03-22T00:16:42.482Z,21.90
2023-03-22T00:17:42.463Z,23.30
2023-03-22T00:18:42.462Z,22.90
2023-03-22T00:19:42.473Z,21.90
2023-03-22T00:20:42.431Z,22.80
2023-03-22T00:21:42.421Z,23.90
2023-03-22T00:22:42.418Z,23.80
2023-03-22T00:23:42.401Z,22.30
2023-03-22T00:24:42.403Z,22.90
2023-03-22T00:25:42.386Z,23.50
2023-03-22T00:26:42.373Z,23.20
2023-03-22T00:27:42.409Z,24.10
2023-03-22T00:28:42.349Z,23.60
2023-03-22T00:29:42.360Z,23.70
2023-03-22T00:30:42.337Z,23.20
2023-03-22T00:31:42.354Z,24.40
2023-03-22T00:32:42.327Z,23.30
2023-03-22T00:33:42.327Z,24.00
2023-03-22T00:34:42.320Z,23.30
2023-03-22T00:35:42.309Z,24.20
2023-03-22T00:36:42.278Z,24.20
2023-03-22T00:37:42.271Z,22.80
2023-03-22T00:38:44.448Z,26.00
2023-03-22T00:39:43.269Z,25.30
2023-03-22T00:40:42.247Z,24.30
2023-03-22T00:41:42.237Z,24.00
2023-03-22T00:42:42.232Z,23.90
2023-03-22T00:43:42.247Z,25.30
2023-03-22T00:44:42.216Z,24.20
2023-03-22T00:45:42.192Z,24.20
2023-03-22T00:46:42.187Z,23.70
2023-03-22T00:47:42.237Z,24.80
2023-03-22T00:48:42.188Z,25.20
2023-03-22T00:49:42.176Z,22.40
2023-03-22T00:50:42.151Z,23.80
2023-03-22T00:51:42.148Z,24.50
2023-03-22T00:52:42.155Z,24.30
2023-03-22T00:53:43.424Z,25.10
2023-03-22T00:54:43.124Z,25.00
2023-03-22T00:55:42.109Z,24.60
2023-03-22T00:56:42.114Z,24.10
2023-03-22T00:57:42.086Z,25.20
2023-03-22T00:58:42.115Z,23.70
2023-03-22T00:59:42.212Z,25.00
2023-03-22T01:00:42.453Z,25.00
2023-03-22T01:01:42.047Z,24.30
2023-03-22T01:02:42.043Z,23.70
2023-03-22T01:03:42.126Z,25.40
2023-03-22T01:04:42.044Z,23.60
2023-03-22T01:05:42.005Z,23.50
2023-03-22T01:06:42.009Z,23.50
2023-03-22T01:07:41.989Z,25.90
2023-03-22T01:08:41.990Z,26.50
2023-03-22T01:09:41.965Z,24.40
2023-03-22T01:10:42.067Z,25.20
2023-03-22T01:11:41.946Z,24.40
2023-03-22T01:12:41.942Z,25.50
2023-03-22T01:13:42.054Z,24.70
2023-03-22T01:14:41.921Z,24.90
2023-03-22T01:15:41.920Z,23.70
2023-03-22T01:16:41.986Z,24.40
2023-03-22T01:17:41.894Z,24.50
2023-03-22T01:18:41.876Z,25.00
2023-03-22T01:19:41.867Z,25.80
2023-03-22T01:20:42.055Z,24.30
2023-03-22T01:21:41.848Z,23.70
2023-03-22T01:22:41.846Z,24.50
2023-03-22T01:23:41.842Z,25.80
2023-03-22T01:24:41.823Z,23.20
2023-03-22T01:25:41.880Z,23.10
2023-03-22T01:26:41.802Z,24.70
2023-03-22T01:27:41.787Z,25.10
2023-03-22T01:28:41.776Z,26.00
2023-03-22T01:29:41.770Z,24.90
2023-03-22T01:30:42.286Z,24.10
2023-03-22T01:31:41.749Z,24.70
2023-03-22T01:32:41.737Z,24.20
2023-03-22T01:33:41.725Z,25.30
2023-03-22T01:34:41.748Z,24.50
2023-03-22T01:35:41.738Z,24.20
2023-03-22T01:36:41.703Z,24.50
2023-03-22T01:37:41.698Z,24.40
2023-03-22T01:38:41.708Z,24.90
2023-03-22T01:39:41.673Z,25.30
2023-03-22T01:40:42.103Z,25.40
2023-03-22T01:41:41.662Z,24.50
2023-03-22T01:42:41.643Z,25.90
2023-03-22T01:43:41.634Z,26.60
2023-03-22T01:44:41.622Z,25.40
2023-03-22T01:45:41.628Z,24.90
2023-03-22T01:46:41.688Z,26.30
2023-03-22T01:47:41.628Z,25.60
2023-03-22T01:48:41.633Z,24.40
2023-03-22T01:49:41.579Z,25.30
2023-03-22T01:50:41.858Z,24.50
2023-03-22T01:51:42.752Z,25.40
2023-03-22T01:52:42.604Z,26.60
2023-03-22T01:53:41.553Z,26.10
2023-03-22T01:54:41.540Z,25.00
2023-03-22T01:55:41.553Z,26.00
2023-03-22T01:56:41.541Z,24.70
2023-03-22T01:57:41.508Z,25.10
2023-03-22T01:58:41.499Z,24.20
2023-03-22T01:59:41.491Z,24.70
2023-03-22T02:00:41.646Z,25.40
2023-03-22T02:01:41.558Z,24.70
2023-03-22T02:02:41.490Z,25.20
2023-03-22T02:03:41.447Z,25.30
2023-03-22T02:04:41.438Z,24.20
2023-03-22T02:05:41.443Z,23.40
2023-03-22T02:06:41.418Z,23.40
2023-03-22T02:07:41.415Z,24.00
2023-03-22T02:08:41.404Z,25.00
2023-03-22T02:09:41.395Z,22.70
2023-03-22T02:10:41.529Z,24.10
2023-03-22T02:11:41.378Z,24.70
2023-03-22T02:12:41.369Z,24.30
2023-03-22T02:13:41.362Z,23.90
2023-03-22T02:14:41.348Z,23.90
2023-03-22T02:15:41.370Z,24.70
2023-03-22T02:16:41.330Z,22.70
2023-03-22T02:17:41.324Z,24.50
2023-03-22T02:18:41.309Z,24.30
2023-03-22T02:19:41.308Z,25.60
2023-03-22T02:20:41.704Z,25.20
2023-03-22T02:21:41.284Z,25.20
2023-03-22T02:22:41.274Z,23.70
2023-03-22T02:23:41.260Z,24.90
2023-03-22T02:24:43.896Z,24.90
2023-03-22T02:25:41.258Z,24.80
2023-03-22T02:26:41.237Z,23.80
2023-03-22T02:27:41.229Z,23.60
2023-03-22T02:28:41.226Z,24.60
2023-03-22T02:29:41.211Z,25.80
2023-03-22T02:30:41.460Z,25.30
2023-03-22T02:31:41.207Z,23.80
2023-03-22T02:32:41.192Z,25.30
2023-03-22T02:33:41.727Z,24.80
2023-03-22T02:34:42.206Z,24.00
2023-03-22T02:35:41.223Z,24.50
2023-03-22T02:36:41.154Z,25.10
2023-03-22T02:37:41.145Z,23.40
2023-03-22T02:38:41.138Z,23.80
2023-03-22T02:39:41.126Z,25.20
2023-03-22T02:40:41.418Z,25.20
2023-03-22T02:41:41.106Z,26.80
2023-03-22T02:42:41.098Z,25.70
2023-03-22T02:43:41.093Z,27.70
2023-03-22T02:44:41.091Z,26.50
2023-03-22T02:45:41.083Z,25.50
2023-03-22T02:46:41.115Z,25.90
2023-03-22T02:47:41.114Z,25.30
2023-03-22T02:48:41.041Z,24.40
2023-03-22T02:49:41.037Z,24.80
2023-03-22T02:50:41.132Z,26.10
2023-03-22T02:51:41.015Z,25.70
2023-03-22T02:52:41.007Z,25.80
2023-03-22T02:53:40.998Z,24.70
2023-03-22T02:54:43.314Z,24.30
2023-03-22T02:55:40.994Z,23.90
2023-03-22T02:56:40.967Z,25.10
2023-03-22T02:57:40.978Z,24.30
2023-03-22T02:58:41.950Z,24.30
2023-03-22T02:59:40.949Z,28.00
2023-03-22T03:00:41.246Z,26.60
2023-03-22T03:01:40.971Z,24.30
2023-03-22T03:02:40.932Z,24.70
2023-03-22T03:03:40.909Z,25.10
2023-03-22T03:04:40.895Z,26.50
2023-03-22T03:05:40.892Z,25.30
2023-03-22T03:06:40.881Z,25.20
2023-03-22T03:07:40.864Z,26.90
2023-03-22T03:08:40.849Z,27.40
2023-03-22T03:09:40.847Z,25.30
2023-03-22T03:10:41.426Z,26.70
2023-03-22T03:11:40.827Z,25.50
2023-03-22T03:12:40.819Z,25.80
2023-03-22T03:13:40.811Z,26.60
2023-03-22T03:14:40.797Z,24.60
2023-03-22T03:15:41.810Z,25.80
2023-03-22T03:16:40.813Z,26.30
2023-03-22T03:17:40.776Z,24.50
2023-03-22T03:18:40.765Z,27.00
2023-03-22T03:19:40.756Z,26.80
2023-03-22T03:20:41.017Z,25.80
2023-03-22T03:21:40.740Z,27.40
2023-03-22T03:22:40.763Z,25.80
2023-03-22T03:23:40.720Z,26.50
2023-03-22T03:24:40.788Z,25.40
2023-03-22T03:25:40.707Z,26.50
2023-03-22T03:26:40.689Z,23.80
2023-03-22T03:27:40.690Z,25.60
2023-03-22T03:28:40.670Z,25.90
2023-03-22T03:29:40.662Z,25.90
2023-03-22T03:30:40.920Z,27.50
2023-03-22T03:31:40.648Z,27.20
2023-03-22T03:32:40.634Z,27.80
2023-03-22T03:33:40.622Z,26.50
2023-03-22T03:34:40.618Z,27.30
2023-03-22T03:35:40.643Z,27.50
2023-03-22T03:36:40.604Z,28.40
2023-03-22T03:37:40.588Z,26.60
2023-03-22T03:38:40.584Z,27.60
2023-03-22T03:39:40.575Z,26.60
2023-03-22T03:40:41.004Z,27.30
2023-03-22T03:41:40.552Z,27.50
2023-03-22T03:42:40.545Z,26.80
2023-03-22T03:43:40.538Z,28.50
2023-03-22T03:44:40.523Z,27.90
2023-03-22T03:45:40.548Z,27.90
2023-03-22T03:46:40.507Z,27.80
2023-03-22T03:47:40.561Z,30.00
2023-03-22T03:48:40.492Z,29.00
2023-03-22T03:49:40.486Z,29.40
2023-03-22T03:50:40.733Z,29.60
2023-03-22T03:51:40.458Z,30.50
2023-03-22T03:52:40.469Z,27.60
2023-03-22T03:53:40.445Z,28.10
2023-03-22T03:54:40.432Z,27.10
2023-03-22T03:55:40.436Z,27.40
2023-03-22T03:56:40.439Z,29.20
2023-03-22T03:57:40.410Z,28.80
2023-03-22T03:58:40.402Z,30.20
2023-03-22T03:59:40.415Z,28.50
2023-03-22T04:00:40.591Z,28.90
2023-03-22T04:01:40.370Z,30.10
2023-03-22T04:02:40.432Z,28.20
2023-03-22T04:03:40.355Z,30.10
2023-03-22T04:04:40.374Z,31.10
2023-03-22T04:05:40.346Z,30.00
2023-03-22T04:06:40.330Z,30.00
2023-03-22T04:07:40.329Z,27.90
2023-03-22T04:08:40.313Z,27.90
2023-03-22T04:09:40.338Z,28.00
2023-03-22T04:10:40.562Z,28.30
2023-03-22T04:11:40.287Z,28.10
2023-03-22T04:12:40.286Z,27.80
2023-03-22T04:13:40.262Z,30.30
2023-03-22T04:14:40.257Z,29.00
2023-03-22T04:15:40.262Z,30.90
2023-03-22T04:16:40.258Z,28.50
2023-03-22T04:17:40.244Z,28.10
2023-03-22T04:18:40.225Z,29.20
2023-03-22T04:19:40.218Z,31.20
2023-03-22T04:20:40.621Z,29.10
2023-03-22T04:21:40.202Z,29.70
2023-03-22T04:22:40.193Z,29.90
2023-03-22T04:23:40.185Z,28.90
2023-03-22T04:24:40.176Z,29.80
2023-03-22T04:25:40.180Z,32.70
2023-03-22T04:26:40.156Z,31.50
2023-03-22T04:27:40.148Z,31.10
2023-03-22T04:28:40.144Z,32.30
2023-03-22T04:29:40.129Z,33.20
2023-03-22T04:30:40.431Z,31.80
2023-03-22T04:31:40.119Z,30.20
2023-03-22T04:32:40.143Z,32.00
2023-03-22T04:33:40.115Z,32.80
2023-03-22T04:34:40.089Z,32.80
2023-03-22T04:35:40.129Z,33.40
2023-03-22T04:36:40.074Z,33.60
2023-03-22T04:37:40.062Z,35.20
2023-03-22T04:38:40.059Z,34.00
2023-03-22T04:39:40.051Z,33.60
2023-03-22T04:40:40.287Z,34.20
2023-03-22T04:41:40.024Z,33.30
2023-03-22T04:42:40.054Z,33.50
2023-03-22T04:43:40.009Z,32.60
2023-03-22T04:44:40.002Z,34.10
2023-03-22T04:45:39.995Z,34.90
2023-03-22T04:46:40.044Z,36.90
2023-03-22T04:47:39.981Z,35.90
2023-03-22T04:48:39.990Z,34.80
2023-03-22T04:49:39.950Z,37.40
2023-03-22T04:50:40.279Z,36.30
2023-03-22T04:51:39.948Z,34.50
2023-03-22T04:52:39.936Z,35.00
2023-03-22T04:53:39.920Z,35.50
2023-03-22T04:54:39.909Z,35.50
2023-03-22T04:55:39.901Z,36.20
2023-03-22T04:56:39.899Z,34.50
2023-03-22T04:57:39.880Z,34.90
2023-03-22T04:58:39.875Z,36.40
2023-03-22T04:59:39.865Z,37.10
2023-03-22T05:00:40.063Z,37.00
2023-03-22T05:01:39.901Z,36.90
2023-03-22T05:02:41.230Z,34.70
2023-03-22T05:03:40.830Z,34.70
2023-03-22T05:04:39.824Z,33.40
2023-03-22T05:05:39.841Z,34.30
2023-03-22T05:06:39.811Z,32.40
2023-03-22T05:07:39.799Z,32.40
2023-03-22T05:08:39.785Z,31.40
2023-03-22T05:09:39.775Z,32.50
2023-03-22T05:10:40.041Z,34.00
2023-03-22T05:11:39.768Z,31.50
2023-03-22T05:12:39.762Z,34.00
2023-03-22T05:13:39.742Z,33.70
2023-03-22T05:14:39.778Z,34.50
2023-03-22T05:15:39.793Z,34.30
2023-03-22T05:16:39.727Z,34.30
2023-03-22T05:17:39.691Z,32.20
2023-03-22T05:18:40.699Z,30.60
2023-03-22T05:19:39.688Z,31.20
2023-03-22T05:20:39.927Z,32.20
2023-03-22T05:21:39.687Z,34.70
2023-03-22T05:22:39.659Z,33.40
2023-03-22T05:23:39.648Z,32.70
2023-03-22T05:24:39.644Z,31.30
2023-03-22T05:25:39.637Z,30.00
2023-03-22T05:26:39.635Z,32.30
2023-03-22T05:27:39.629Z,31.70
2023-03-22T05:28:39.608Z,31.60
2023-03-22T05:29:39.604Z,32.10
2023-03-22T05:30:39.860Z,30.50
2023-03-22T05:31:40.602Z,31.60
2023-03-22T05:32:39.571Z,32.10
2023-03-22T05:33:39.568Z,30.20
2023-03-22T05:34:39.554Z,30.00
2023-03-22T05:35:39.565Z,30.10
2023-03-22T05:36:39.547Z,29.90
2023-03-22T05:37:39.529Z,29.80
2023-03-22T05:38:39.522Z,29.10
2023-03-22T05:39:39.510Z,30.70
2023-03-22T05:40:39.707Z,30.60
2023-03-22T05:41:39.505Z,29.60
2023-03-22T05:42:39.485Z,31.10
2023-03-22T05:43:39.478Z,28.10
2023-03-22T05:44:39.470Z,30.10
2023-03-22T05:45:39.461Z,28.80
2023-03-22T05:46:39.545Z,29.80
2023-03-22T05:47:39.476Z,29.10
2023-03-22T05:48:39.430Z,30.00
2023-03-22T05:49:39.430Z,30.70
2023-03-22T05:50:39.618Z,29.80
2023-03-22T05:51:39.424Z,30.50
2023-03-22T05:52:39.405Z,31.00
2023-03-22T05:53:39.394Z,29.80
2023-03-22T05:54:39.390Z,29.40
2023-03-22T05:55:39.373Z,30.40
2023-03-22T05:56:39.373Z,29.10
2023-03-22T05:57:39.355Z,31.00
2023-03-22T05:58:39.346Z,31.00
2023-03-22T05:59:39.334Z,30.30
2023-03-22T06:00:39.588Z,30.60
2023-03-22T06:01:39.366Z,29.90
2023-03-22T06:02:39.362Z,30.50
2023-03-22T06:03:39.296Z,31.10
2023-03-22T06:04:39.289Z,30.90
2023-03-22T06:05:39.277Z,31.20
2023-03-22T06:06:39.288Z,32.60
2023-03-22T06:07:39.257Z,32.60
2023-03-22T06:08:39.262Z,32.70
2023-03-22T06:09:39.246Z,32.00
2023-03-22T06:10:39.570Z,32.50
2023-03-22T06:11:39.237Z,31.50
2023-03-22T06:12:39.231Z,32.80
2023-03-22T06:13:39.211Z,32.20
2023-03-22T06:14:39.192Z,34.40
2023-03-22T06:15:39.186Z,32.30
2023-03-22T06:16:39.231Z,33.10
2023-03-22T06:17:39.170Z,32.70
2023-03-22T06:18:39.169Z,32.60
2023-03-22T06:19:39.161Z,32.70
2023-03-22T06:20:39.367Z,35.00
2023-03-22T06:21:39.144Z,33.30
2023-03-22T06:22:39.122Z,34.60
2023-03-22T06:23:39.117Z,34.30
2023-03-22T06:24:39.102Z,34.50
2023-03-22T06:25:39.094Z,34.50
2023-03-22T06:26:39.095Z,34.60
2023-03-22T06:27:39.081Z,33.60
2023-03-22T06:28:39.078Z,32.60
2023-03-22T06:29:40.059Z,34.50
2023-03-22T06:30:39.499Z,32.80
2023-03-22T06:31:39.043Z,33.60
2023-03-22T06:32:39.036Z,33.90
2023-03-22T06:33:39.017Z,33.70
2023-03-22T06:34:39.006Z,34.80
2023-03-22T06:35:39.047Z,35.10
2023-03-22T06:36:39.001Z,34.90
2023-03-22T06:37:38.985Z,34.00
2023-03-22T06:38:38.969Z,34.60
2023-03-22T06:39:38.964Z,34.00
2023-03-22T06:40:39.251Z,35.10
2023-03-22T06:41:38.949Z,35.40
2023-03-22T06:42:38.931Z,34.90
2023-03-22T06:43:38.924Z,34.40
2023-03-22T06:44:38.916Z,34.00
2023-03-22T06:45:38.946Z,34.90
2023-03-22T06:46:38.902Z,32.50
2023-03-22T06:47:38.889Z,34.50
2023-03-22T06:48:38.877Z,32.50
2023-03-22T06:49:38.867Z,34.60
2023-03-22T06:50:39.314Z,34.40
2023-03-22T06:51:38.857Z,33.70
2023-03-22T06:52:38.845Z,36.10
2023-03-22T06:53:38.825Z,34.80
2023-03-22T06:54:38.817Z,33.70
2023-03-22T06:55:38.828Z,34.50
2023-03-22T06:56:38.810Z,35.00
2023-03-22T06:57:38.785Z,34.80
2023-03-22T06:58:38.785Z,36.10
2023-03-22T06:59:38.770Z,34.60
2023-03-22T07:00:39.227Z,34.30
2023-03-22T07:01:38.776Z,33.70
2023-03-22T07:02:38.739Z,34.20
2023-03-22T07:03:38.724Z,34.60
2023-03-22T07:04:38.781Z,34.20
2023-03-22T07:05:38.705Z,36.20
2023-03-22T07:06:39.719Z,34.10
2023-03-22T07:07:38.693Z,34.10
2023-03-22T07:08:38.689Z,35.80
2023-03-22T07:09:38.678Z,34.80
2023-03-22T07:10:39.024Z,35.30
2023-03-22T07:11:38.676Z,35.40
2023-03-22T07:12:38.651Z,34.20
2023-03-22T07:13:38.636Z,35.10
2023-03-22T07:14:38.628Z,34.20
2023-03-22T07:15:38.708Z,35.40
2023-03-22T07:16:38.609Z,33.30
2023-03-22T07:17:38.610Z,34.00
2023-03-22T07:18:38.589Z,33.80
2023-03-22T07:19:38.584Z,30.70
2023-03-22T07:20:38.991Z,29.10
2023-03-22T07:21:38.567Z,30.10
2023-03-22T07:22:38.575Z,31.40
2023-03-22T07:23:38.549Z,31.10
2023-03-22T07:24:47.306Z,30.20
2023-03-22T07:25:40.525Z,28.90
2023-03-22T07:26:38.515Z,26.20
2023-03-22T07:27:38.514Z,26.30
2023-03-22T07:28:38.505Z,25.80
2023-03-22T07:29:38.492Z,25.60
2023-03-22T07:30:38.886Z,24.80
2023-03-22T07:31:38.474Z,24.90
2023-03-22T07:32:38.535Z,24.40
2023-03-22T07:33:38.461Z,24.40
2023-03-22T07:34:38.440Z,23.80
2023-03-22T07:35:38.538Z,23.40
2023-03-22T07:36:38.424Z,21.10
2023-03-22T07:37:38.434Z,24.10
2023-03-22T07:38:38.408Z,23.20
2023-03-22T07:39:38.405Z,21.80
2023-03-22T07:40:38.643Z,20.60
2023-03-22T07:41:38.378Z,21.90
2023-03-22T07:42:38.380Z,22.00
2023-03-22T07:43:52.416Z,21.00
2023-03-22T07:44:40.350Z,21.40
2023-03-22T07:45:38.348Z,22.00
2023-03-22T07:46:38.399Z,22.70
2023-03-22T07:47:41.329Z,20.00
2023-03-22T07:48:39.308Z,21.70
2023-03-22T07:49:38.305Z,21.80
2023-03-22T07:50:38.564Z,20.40
2023-03-22T07:51:38.287Z,20.10
2023-03-22T07:52:38.296Z,20.30
2023-03-22T07:53:38.263Z,20.40
2023-03-22T07:54:38.287Z,18.60
2023-03-22T07:55:38.247Z,18.80
2023-03-22T07:56:38.240Z,20.40
2023-03-22T07:57:38.234Z,19.60
2023-03-22T07:58:38.272Z,19.10
2023-03-22T07:59:40.123Z,18.90
2023-03-22T08:00:39.417Z,19.70
2023-03-22T08:01:38.255Z,19.60
2023-03-22T08:02:38.219Z,19.50
2023-03-22T08:03:38.174Z,19.00
2023-03-22T08:04:38.160Z,18.10
2023-03-22T08:05:38.690Z,16.80
2023-03-22T08:06:38.139Z,16.30
2023-03-22T08:07:38.148Z,16.30
2023-03-22T08:08:38.134Z,16.00
2023-03-22T08:09:38.113Z,14.90
2023-03-22T08:10:38.407Z,14.50
2023-03-22T08:11:38.091Z,13.30
2023-03-22T08:12:38.094Z,14.10
2023-03-22T08:13:38.120Z,14.90
2023-03-22T08:14:38.061Z,13.00
2023-03-22T08:15:38.301Z,13.00
2023-03-22T08:16:38.069Z,11.00
2023-03-22T08:17:38.052Z,10.10
2023-03-22T08:18:38.022Z,10.20
2023-03-22T08:19:38.007Z,10.50
2023-03-22T08:20:38.576Z,10.40
2023-03-22T08:21:38.027Z,10.30
2023-03-22T08:22:38.306Z,10.30
2023-03-22T08:23:42.090Z,8.90
2023-03-22T08:24:38.960Z,9.00
2023-03-22T08:25:38.949Z,10.30
2023-03-22T08:26:37.943Z,8.70
2023-03-22T08:27:37.954Z,8.70
2023-03-22T08:28:38.929Z,8.70
2023-03-22T08:29:37.919Z,8.50
2023-03-22T08:30:38.173Z,8.50
2023-03-22T08:31:37.906Z,8.30
2023-03-22T08:32:37.894Z,8.10
2023-03-22T08:33:37.917Z,8.50
2023-03-22T08:34:37.862Z,8.10
2023-03-22T08:35:38.318Z,8.00
2023-03-22T08:36:37.851Z,7.50
2023-03-22T08:37:37.856Z,8.20
2023-03-22T08:38:37.824Z,7.70
2023-03-22T08:39:37.826Z,8.50
2023-03-22T08:40:37.870Z,7.60
2023-03-22T08:41:37.794Z,7.90
2023-03-22T08:42:37.791Z,7.20
2023-03-22T08:43:37.866Z,7.70
2023-03-22T08:44:37.791Z,7.90
2023-03-22T08:45:38.350Z,8.10
2023-03-22T08:46:37.743Z,7.70
2023-03-22T08:47:37.754Z,7.30
2023-03-22T08:48:37.728Z,7.30
2023-03-22T08:49:37.724Z,7.30
2023-03-22T08:50:37.708Z,7.10
2023-03-22T08:51:37.695Z,8.50
2023-03-22T08:52:37.696Z,9.00
2023-03-22T08:53:37.722Z,9.40
2023-03-22T08:54:37.673Z,8.90
2023-03-22T08:55:38.041Z,9.80
2023-03-22T08:56:37.675Z,10.10
2023-03-22T08:57:38.887Z,9.80
2023-03-22T08:58:38.640Z,9.70
2023-03-22T08:59:37.632Z,9.10
2023-03-22T09:00:48.113Z,9.40
2023-03-22T09:01:39.766Z,9.70
2023-03-22T09:02:37.602Z,9.30
2023-03-22T09:03:37.625Z,8.20
2023-03-22T09:04:37.626Z,8.20
2023-03-22T09:05:37.986Z,8.10
2023-03-22T09:06:37.560Z,9.20
2023-03-22T09:07:37.568Z,9.00
2023-03-22T09:08:37.548Z,8.50
2023-03-22T09:09:37.520Z,8.50
2023-03-22T09:10:38.511Z,8.40
2023-03-22T09:11:37.525Z,8.20
2023-03-22T09:12:37.505Z,8.90
2023-03-22T09:13:37.546Z,8.00
2023-03-22T09:14:37.501Z,7.90
2023-03-22T09:15:37.487Z,7.60
2023-03-22T09:16:37.492Z,8.80
2023-03-22T09:17:37.452Z,8.30
2023-03-22T09:18:37.462Z,8.40
2023-03-22T09:19:37.490Z,7.60
2023-03-22T09:20:37.477Z,8.10
2023-03-22T09:21:37.418Z,7.90
2023-03-22T09:22:37.456Z,7.60
2023-03-22T09:23:37.428Z,7.60
2023-03-22T09:24:37.380Z,7.70
2023-03-22T09:25:37.359Z,6.90
2023-03-22T09:26:37.351Z,7.10
2023-03-22T09:27:37.352Z,7.90
2023-03-22T09:28:37.391Z,8.00
2023-03-22T09:29:37.314Z,8.10
2023-03-22T09:30:37.336Z,7.50
2023-03-22T09:31:37.355Z,7.00
2023-03-22T09:32:37.299Z,7.80
2023-03-22T09:33:37.292Z,8.00
2023-03-22T09:34:37.274Z,7.60
2023-03-22T09:35:37.296Z,7.90
2023-03-22T09:36:37.247Z,7.40
2023-03-22T09:37:37.245Z,7.20
2023-03-22T09:38:37.233Z,7.30
2023-03-22T09:39:37.208Z,8.00
2023-03-22T09:40:38.210Z,7.20
2023-03-22T09:41:37.199Z,7.30
2023-03-22T09:42:37.222Z,7.40
2023-03-22T09:43:37.231Z,8.30
2023-03-22T09:44:37.170Z,8.60
2023-03-22T09:45:37.182Z,8.60
2023-03-22T09:46:37.297Z,8.40
2023-03-22T09:47:44.293Z,8.80
2023-03-22T09:48:39.137Z,8.00
2023-03-22T09:49:52.276Z,8.70
2023-03-22T09:50:39.115Z,8.70
2023-03-22T09:51:37.101Z,8.00
2023-03-22T09:52:37.100Z,7.90
2023-03-22T09:53:37.084Z,8.10
2023-03-22T09:54:37.077Z,8.30
2023-03-22T09:55:37.481Z,8.50
2023-03-22T09:56:37.049Z,8.00
2023-03-22T09:57:37.061Z,8.90
2023-03-22T09:58:37.106Z,8.60
2023-03-22T09:59:37.021Z,9.20
2023-03-22T10:00:37.147Z,7.80
2023-03-22T10:01:37.169Z,7.90
2023-03-22T10:02:37.061Z,7.50
2023-03-22T10:03:36.992Z,8.00
2023-03-22T10:04:37.052Z,7.70
2023-03-22T10:05:36.978Z,7.60
2023-03-22T10:06:36.948Z,7.30
2023-03-22T10:07:36.936Z,8.20
2023-03-22T10:08:36.941Z,7.50
2023-03-22T10:09:36.915Z,7.40
2023-03-22T10:10:36.897Z,7.60
2023-03-22T10:11:36.898Z,6.90
2023-03-22T10:12:36.881Z,7.10
2023-03-22T10:13:36.891Z,6.90
2023-03-22T10:14:36.863Z,6.80
2023-03-22T10:15:36.855Z,6.50
2023-03-22T10:16:36.869Z,6.60
2023-03-22T10:17:36.829Z,7.00
2023-03-22T10:18:36.836Z,6.80
2023-03-22T10:19:36.810Z,7.00
2023-03-22T10:20:36.797Z,6.80
2023-03-22T10:21:36.784Z,6.90
2023-03-22T10:22:36.852Z,6.80
2023-03-22T10:23:36.773Z,6.40
2023-03-22T10:24:36.762Z,5.30
2023-03-22T10:25:36.755Z,4.70
2023-03-22T10:26:36.766Z,4.60
2023-03-22T10:27:36.724Z,5.50
2023-03-22T10:28:36.725Z,4.50
2023-03-22T10:29:36.739Z,4.70
2023-03-22T10:30:36.704Z,4.30
2023-03-22T10:31:36.751Z,4.50
2023-03-22T10:32:45.211Z,4.20
2023-03-22T10:33:38.667Z,4.60
2023-03-22T10:34:36.646Z,5.10
2023-03-22T10:35:36.686Z,5.60
2023-03-22T10:36:36.632Z,5.10
2023-03-22T10:37:36.626Z,4.80
2023-03-22T10:38:36.619Z,5.30
2023-03-22T10:39:38.505Z,4.50
2023-03-22T10:40:36.584Z,4.80
2023-03-22T10:41:36.618Z,4.80
2023-03-22T10:42:36.570Z,4.70
2023-03-22T10:43:36.574Z,3.80
2023-03-22T10:44:36.553Z,3.80
2023-03-22T10:45:36.546Z,4.00
2023-03-22T10:46:36.585Z,3.90
2023-03-22T10:47:36.517Z,3.90
2023-03-22T10:48:36.567Z,4.20
2023-03-22T10:49:36.504Z,4.30
2023-03-22T10:50:36.536Z,4.40
2023-03-22T10:51:36.529Z,4.70
2023-03-22T10:52:36.471Z,4.10
2023-03-22T10:53:36.476Z,4.40
2023-03-22T10:54:36.470Z,4.70
2023-03-22T10:55:36.449Z,4.40
2023-03-22T10:56:36.437Z,4.00
2023-03-22T10:57:36.444Z,4.00
2023-03-22T10:58:36.427Z,4.10
2023-03-22T10:59:36.419Z,4.50
2023-03-22T11:00:39.863Z,4.10
2023-03-22T11:01:37.640Z,3.70
2023-03-22T11:02:36.544Z,4.00
2023-03-22T11:03:36.424Z,4.30
2023-03-22T11:04:36.368Z,3.90
2023-03-22T11:05:36.347Z,3.70
2023-03-22T11:06:36.331Z,4.00
2023-03-22T11:07:36.322Z,3.60
2023-03-22T11:08:36.405Z,4.20
2023-03-22T11:09:36.298Z,4.20
2023-03-22T11:10:36.333Z,3.80
2023-03-22T11:11:36.311Z,4.00
2023-03-22T11:12:37.797Z,4.10
2023-03-22T11:13:36.273Z,3.50
2023-03-22T11:14:36.271Z,3.50
2023-03-22T11:15:36.244Z,3.10
2023-03-22T11:16:36.272Z,3.10
2023-03-22T11:17:36.229Z,3.50
2023-03-22T11:18:36.224Z,3.80
2023-03-22T11:19:36.199Z,3.40
2023-03-22T11:20:36.233Z,3.70
2023-03-22T11:21:36.176Z,3.30
2023-03-22T11:22:36.166Z,3.50
2023-03-22T11:23:36.163Z,3.30
2023-03-22T11:24:36.151Z,5.40
2023-03-22T11:25:36.143Z,3.20
2023-03-22T11:26:39.041Z,4.10
2023-03-22T11:27:37.138Z,3.20
2023-03-22T11:28:36.122Z,2.90
2023-03-22T11:29:36.094Z,2.90
2023-03-22T11:30:36.086Z,2.60
2023-03-22T11:31:36.152Z,2.40
2023-03-22T11:32:36.139Z,3.00
2023-03-22T11:33:36.080Z,2.40
2023-03-22T11:34:36.047Z,2.60
2023-03-22T11:35:36.060Z,2.50
2023-03-22T11:36:36.018Z,2.70
2023-03-22T11:37:36.022Z,2.40
2023-03-22T11:38:36.009Z,2.60
2023-03-22T11:39:36.001Z,2.50
2023-03-22T11:40:35.980Z,2.50
2023-03-22T11:41:35.967Z,2.50
2023-03-22T11:42:35.960Z,2.60
2023-03-22T11:43:35.984Z,2.60
2023-03-22T11:44:35.951Z,2.30
2023-03-22T11:45:35.945Z,2.50
2023-03-22T11:46:35.976Z,2.40
2023-03-22T11:47:35.956Z,2.40
2023-03-22T11:48:36.089Z,2.30
2023-03-22T11:49:35.884Z,2.40
2023-03-22T11:50:35.873Z,2.40
2023-03-22T11:51:35.869Z,2.40
2023-03-22T11:52:35.853Z,2.30
2023-03-22T11:53:35.858Z,2.70
2023-03-22T11:54:35.833Z,2.50
2023-03-22T11:55:35.836Z,2.50
2023-03-22T11:56:35.815Z,2.30
2023-03-22T11:57:35.798Z,2.60
2023-03-22T11:58:35.799Z,2.20
2023-03-22T11:59:35.786Z,2.80
2023-03-22T12:00:35.767Z,2.20
2023-03-22T12:01:35.765Z,2.20
2023-03-22T12:02:35.889Z,2.10
2023-03-22T12:03:38.837Z,2.40
2023-03-22T12:04:36.758Z,2.70
2023-03-22T12:05:35.718Z,2.30
2023-03-22T12:06:35.823Z,2.20
2023-03-22T12:07:35.694Z,2.30
2023-03-22T12:08:35.692Z,1.90
2023-03-22T12:09:35.683Z,2.20
2023-03-22T12:10:35.667Z,2.20
2023-03-22T12:11:35.658Z,2.40
2023-03-22T12:12:35.643Z,2.20
2023-03-22T12:13:35.664Z,1.80
2023-03-22T12:14:35.632Z,1.60
2023-03-22T12:15:35.641Z,1.70
2023-03-22T12:16:35.629Z,1.70
2023-03-22T12:17:35.661Z,1.90
2023-03-22T12:18:35.602Z,1.90
2023-03-22T12:19:35.578Z,1.80
2023-03-22T12:20:35.576Z,1.70
2023-03-22T12:21:35.562Z,1.70
2023-03-22T12:22:35.552Z,2.00
2023-03-22T12:23:35.557Z,1.70
2023-03-22T12:24:35.532Z,1.90
2023-03-22T12:25:35.540Z,1.80
2023-03-22T12:26:35.514Z,2.10
2023-03-22T12:27:35.501Z,2.00
2023-03-22T12:28:35.520Z,2.00
2023-03-22T12:29:35.490Z,1.80
2023-03-22T12:30:35.483Z,1.90
2023-03-22T12:31:35.500Z,1.50
2023-03-22T12:32:35.488Z,1.50
2023-03-22T12:33:35.450Z,1.40
2023-03-22T12:34:35.450Z,1.50
2023-03-22T12:35:35.552Z,2.00
2023-03-22T12:36:36.414Z,2.00
2023-03-22T12:37:35.409Z,1.70
2023-03-22T12:38:35.516Z,1.70
2023-03-22T12:39:35.385Z,1.50
2023-03-22T12:40:35.378Z,1.70
2023-03-22T12:41:35.376Z,1.60
2023-03-22T12:42:40.641Z,1.40
2023-03-22T12:43:36.363Z,1.70
2023-03-22T12:44:35.341Z,1.90
2023-03-22T12:45:35.327Z,2.00
2023-03-22T12:46:35.345Z,1.70
2023-03-22T12:47:35.334Z,1.30
2023-03-22T12:48:35.349Z,2.10
2023-03-22T12:49:35.290Z,1.60
2023-03-22T12:50:35.279Z,2.50
2023-03-22T12:51:35.271Z,2.30
2023-03-22T12:52:44.806Z,1.80
2023-03-22T12:53:37.268Z,1.90
2023-03-22T12:54:35.241Z,2.50
2023-03-22T12:55:35.232Z,2.20
2023-03-22T12:56:35.224Z,2.20
2023-03-22T12:57:35.210Z,2.20
2023-03-22T12:58:35.436Z,3.30
2023-03-22T12:59:35.190Z,1.60
2023-03-22T13:00:35.228Z,1.90
2023-03-22T13:01:35.234Z,2.00